sensor_id;sensor_type;location;lat;lon;timestamp;pressure;altitude;pressure_sealevel;temperature;humidity
39341;BME280;25059;52.132;21.062;2023-04-01T00:02:10;98417.97;;;12.42;100.00
39341;BME280;25059;52.132;21.062;2023-04-01T00:04:54;98417.47;;;12.26;100.00
39341;BME280;25059;52.132;21.062;2023-04-01T00:07:40;98398.41;;;12.22;100.00
39341;BME280;25059;52.132;21.062;2023-04-01T00:10:25;98409.09;;;12.43;100.00
39341;BME280;25059;52.132;21.062;2023-04-01T00:13:09;98398.75;;;12.07;100.00
39341;BME280;25059;52.132;21.062;2023-04-01T00:15:55;98398.53;;;12.10;100.00
39341;BME280;25059;52.132;21.062;2023-04-01T00:18:39;98401.41;;;12.29;100.00
39341;BME280;25059;52.132;21.062;2023-04-01T00:21:24;98391.19;;;11.91;100.00
39341;BME280;25059;52.132;21.062;2023-04-01T00:24:09;98384.66;;;12.30;100.00
39341;BME280;25059;52.132;21.062;2023-04-01T00:26:54;98396.03;;;12.53;100.00
39341;BME280;25059;52.132;21.062;2023-04-01T00:29:43;98389.44;;;12.25;100.00
39341;BME280;25059;52.132;21.062;2023-04-01T00:32:28;98389.19;;;12.28;100.00
39341;BME280;25059;52.132;21.062;2023-04-01T00:35:14;98387.88;;;12.22;100.00
39341;BME280;25059;52.132;21.062;2023-04-01T00:37:59;98381.38;;;12.04;100.00
39341;BME280;25059;52.132;21.062;2023-04-01T00:40:46;98384.88;;;12.27;100.00
39341;BME280;25059;52.132;21.062;2023-04-01T00:43:32;98376.28;;;12.36;100.00
39341;BME280;25059;52.132;21.062;2023-04-01T00:46:17;98372.78;;;12.13;100.00
39341;BME280;25059;52.132;21.062;2023-04-01T00:49:02;98377.91;;;11.92;100.00
39341;BME280;25059;52.132;21.062;2023-04-01T00:51:48;98392.00;;;11.80;100.00
39341;BME280;25059;52.132;21.062;2023-04-01T00:54:34;98396.19;;;11.83;100.00
39341;BME280;25059;52.132;21.062;2023-04-01T00:57:31;98393.78;;;11.80;100.00
39341;BME280;25059;52.132;21.062;2023-04-01T01:00:17;98401.81;;;11.54;100.00
39341;BME280;25059;52.132;21.062;2023-04-01T01:03:02;98399.31;;;11.64;100.00
39341;BME280;25059;52.132;21.062;2023-04-01T01:12:03;98393.09;;;11.65;100.00
39341;BME280;25059;52.132;21.062;2023-04-01T01:15:00;98390.84;;;11.72;100.00
39341;BME280;25059;52.132;21.062;2023-04-01T01:17:58;98393.13;;;11.76;100.00
39341;BME280;25059;52.132;21.062;2023-04-01T01:24:07;98390.50;;;11.76;100.00
39341;BME280;25059;52.132;21.062;2023-04-01T01:26:59;98385.25;;;11.76;100.00
39341;BME280;25059;52.132;21.062;2023-04-01T01:35:47;98380.72;;;11.78;100.00
39341;BME280;25059;52.132;21.062;2023-04-01T01:38:34;98401.16;;;12.10;100.00
39341;BME280;25059;52.132;21.062;2023-04-01T01:41:19;98404.53;;;12.23;100.00
39341;BME280;25059;52.132;21.062;2023-04-01T01:44:09;98401.75;;;12.02;100.00
39341;BME280;25059;52.132;21.062;2023-04-01T01:46:56;98393.22;;;11.87;100.00
39341;BME280;25059;52.132;21.062;2023-04-01T01:49:42;98398.81;;;11.59;100.00
39341;BME280;25059;52.132;21.062;2023-04-01T01:52:27;98389.25;;;11.58;100.00
39341;BME280;25059;52.132;21.062;2023-04-01T01:55:31;98396.53;;;11.78;100.00
39341;BME280;25059;52.132;21.062;2023-04-01T01:58:23;98384.97;;;12.03;100.00
39341;BME280;25059;52.132;21.062;2023-04-01T02:01:12;98386.44;;;11.72;100.00
39341;BME280;25059;52.132;21.062;2023-04-01T02:03:58;98384.00;;;11.93;100.00
39341;BME280;25059;52.132;21.062;2023-04-01T02:06:47;98371.34;;;11.74;100.00
39341;BME280;25059;52.132;21.062;2023-04-01T02:09:34;98364.72;;;11.92;100.00
39341;BME280;25059;52.132;21.062;2023-04-01T02:12:21;98362.09;;;11.92;100.00
39341;BME280;25059;52.132;21.062;2023-04-01T02:15:08;98364.84;;;11.91;100.00
39341;BME280;25059;52.132;21.062;2023-04-01T02:17:54;98364.16;;;12.11;100.00
39341;BME280;25059;52.132;21.062;2023-04-01T02:20:41;98367.63;;;12.23;100.00
39341;BME280;25059;52.132;21.062;2023-04-01T02:23:27;98361.19;;;12.27;100.00
39341;BME280;25059;52.132;21.062;2023-04-01T02:26:14;98358.28;;;11.96;100.00
39341;BME280;25059;52.132;21.062;2023-04-01T02:28:59;98355.16;;;11.91;100.00
39341;BME280;25059;52.132;21.062;2023-04-01T02:31:45;98359.84;;;11.99;100.00
39341;BME280;25059;52.132;21.062;2023-04-01T02:34:30;98361.88;;;12.07;100.00
39341;BME280;25059;52.132;21.062;2023-04-01T02:37:15;98359.59;;;12.02;100.00
39341;BME280;25059;52.132;21.062;2023-04-01T02:40:02;98352.91;;;11.63;100.00
39341;BME280;25059;52.132;21.062;2023-04-01T02:42:47;98355.06;;;11.69;100.00
39341;BME280;25059;52.132;21.062;2023-04-01T02:45:31;98358.72;;;11.79;100.00
39341;BME280;25059;52.132;21.062;2023-04-01T02:48:16;98362.50;;;11.40;100.00
39341;BME280;25059;52.132;21.062;2023-04-01T02:51:00;98364.16;;;11.30;100.00
39341;BME280;25059;52.132;21.062;2023-04-01T02:53:45;98346.66;;;11.53;100.00
39341;BME280;25059;52.132;21.062;2023-04-01T02:56:30;98357.41;;;11.50;100.00
39341;BME280;25059;52.132;21.062;2023-04-01T02:59:14;98360.06;;;11.26;100.00
39341;BME280;25059;52.132;21.062;2023-04-01T03:01:59;98358.94;;;11.41;100.00
39341;BME280;25059;52.132;21.062;2023-04-01T03:04:43;98358.81;;;11.43;100.00
39341;BME280;25059;52.132;21.062;2023-04-01T03:07:28;98375.69;;;11.16;100.00
39341;BME280;25059;52.132;21.062;2023-04-01T03:10:13;98375.69;;;11.16;100.00
39341;BME280;25059;52.132;21.062;2023-04-01T03:12:58;98379.75;;;11.44;100.00
39341;BME280;25059;52.132;21.062;2023-04-01T03:15:42;98369.69;;;11.73;100.00
39341;BME280;25059;52.132;21.062;2023-04-01T03:18:27;98385.53;;;11.84;100.00
39341;BME280;25059;52.132;21.062;2023-04-01T03:21:14;98372.28;;;12.08;100.00
39341;BME280;25059;52.132;21.062;2023-04-01T03:23:59;98372.50;;;11.83;100.00
39341;BME280;25059;52.132;21.062;2023-04-01T03:26:44;98377.09;;;11.68;100.00
39341;BME280;25059;52.132;21.062;2023-04-01T03:29:28;98381.78;;;11.41;100.00
39341;BME280;25059;52.132;21.062;2023-04-01T03:32:13;98386.59;;;11.47;100.00
39341;BME280;25059;52.132;21.062;2023-04-01T03:34:58;98383.00;;;11.24;100.00
39341;BME280;25059;52.132;21.062;2023-04-01T03:37:42;98384.84;;;11.35;100.00
39341;BME280;25059;52.132;21.062;2023-04-01T03:40:27;98391.06;;;11.33;100.00
39341;BME280;25059;52.132;21.062;2023-04-01T03:43:12;98397.91;;;11.36;100.00
39341;BME280;25059;52.132;21.062;2023-04-01T03:45:56;98403.50;;;11.08;100.00
39341;BME280;25059;52.132;21.062;2023-04-01T03:48:41;98395.78;;;11.17;100.00
39341;BME280;25059;52.132;21.062;2023-04-01T03:51:26;98401.06;;;11.05;100.00
39341;BME280;25059;52.132;21.062;2023-04-01T03:54:11;98407.63;;;10.99;100.00
39341;BME280;25059;52.132;21.062;2023-04-01T03:56:56;98411.38;;;11.08;100.00
39341;BME280;25059;52.132;21.062;2023-04-01T03:59:41;98406.00;;;11.09;100.00
39341;BME280;25059;52.132;21.062;2023-04-01T04:02:26;98407.13;;;11.42;100.00
39341;BME280;25059;52.132;21.062;2023-04-01T04:05:11;98408.41;;;11.36;100.00
39341;BME280;25059;52.132;21.062;2023-04-01T04:07:55;98417.50;;;11.32;100.00
39341;BME280;25059;52.132;21.062;2023-04-01T04:10:40;98419.91;;;11.35;100.00
39341;BME280;25059;52.132;21.062;2023-04-01T04:13:25;98422.97;;;11.53;100.00
39341;BME280;25059;52.132;21.062;2023-04-01T04:16:10;98417.16;;;11.13;100.00
39341;BME280;25059;52.132;21.062;2023-04-01T04:18:55;98421.53;;;11.25;100.00
39341;BME280;25059;52.132;21.062;2023-04-01T04:21:41;98430.75;;;11.54;100.00
39341;BME280;25059;52.132;21.062;2023-04-01T04:24:25;98436.41;;;11.37;100.00
39341;BME280;25059;52.132;21.062;2023-04-01T04:27:11;98435.78;;;11.33;100.00
39341;BME280;25059;52.132;21.062;2023-04-01T04:29:56;98426.88;;;11.71;100.00
39341;BME280;25059;52.132;21.062;2023-04-01T04:32:40;98435.22;;;11.65;100.00
39341;BME280;25059;52.132;21.062;2023-04-01T04:35:26;98439.66;;;11.64;100.00
39341;BME280;25059;52.132;21.062;2023-04-01T04:38:10;98437.25;;;11.61;100.00
39341;BME280;25059;52.132;21.062;2023-04-01T04:40:55;98426.00;;;11.59;100.00
39341;BME280;25059;52.132;21.062;2023-04-01T04:43:41;98439.91;;;11.96;100.00
39341;BME280;25059;52.132;21.062;2023-04-01T04:46:25;98442.09;;;12.03;100.00
39341;BME280;25059;52.132;21.062;2023-04-01T04:49:10;98429.88;;;12.02;100.00
39341;BME280;25059;52.132;21.062;2023-04-01T04:51:55;98435.94;;;11.91;100.00
39341;BME280;25059;52.132;21.062;2023-04-01T04:54:39;98424.34;;;11.93;100.00
39341;BME280;25059;52.132;21.062;2023-04-01T04:57:24;98426.03;;;12.06;100.00
39341;BME280;25059;52.132;21.062;2023-04-01T05:00:09;98439.69;;;11.76;100.00
39341;BME280;25059;52.132;21.062;2023-04-01T05:02:54;98452.25;;;11.72;100.00
39341;BME280;25059;52.132;21.062;2023-04-01T05:05:39;98451.13;;;11.87;100.00
39341;BME280;25059;52.132;21.062;2023-04-01T05:08:24;98442.25;;;11.77;100.00
39341;BME280;25059;52.132;21.062;2023-04-01T05:11:13;98448.44;;;11.76;100.00
39341;BME280;25059;52.132;21.062;2023-04-01T05:13:57;98448.75;;;11.95;100.00
39341;BME280;25059;52.132;21.062;2023-04-01T05:16:42;98440.78;;;12.08;100.00
39341;BME280;25059;52.132;21.062;2023-04-01T05:19:27;98443.78;;;12.15;100.00
39341;BME280;25059;52.132;21.062;2023-04-01T05:22:11;98440.25;;;12.72;100.00
39341;BME280;25059;52.132;21.062;2023-04-01T05:24:56;98444.53;;;12.28;100.00
39341;BME280;25059;52.132;21.062;2023-04-01T05:27:40;98440.59;;;12.56;100.00
39341;BME280;25059;52.132;21.062;2023-04-01T05:30:25;98448.50;;;12.56;100.00
39341;BME280;25059;52.132;21.062;2023-04-01T05:33:11;98446.13;;;12.86;100.00
39341;BME280;25059;52.132;21.062;2023-04-01T05:35:56;98449.00;;;12.61;100.00
39341;BME280;25059;52.132;21.062;2023-04-01T05:38:41;98446.38;;;12.72;100.00
39341;BME280;25059;52.132;21.062;2023-04-01T05:41:27;98447.69;;;12.89;100.00
39341;BME280;25059;52.132;21.062;2023-04-01T05:44:12;98448.75;;;13.20;100.00
39341;BME280;25059;52.132;21.062;2023-04-01T05:46:57;98448.41;;;12.69;100.00
39341;BME280;25059;52.132;21.062;2023-04-01T05:49:41;98449.72;;;12.97;100.00
39341;BME280;25059;52.132;21.062;2023-04-01T05:52:26;98449.97;;;12.82;100.00
39341;BME280;25059;52.132;21.062;2023-04-01T05:55:11;98457.16;;;12.91;100.00
39341;BME280;25059;52.132;21.062;2023-04-01T05:57:56;98458.47;;;12.64;100.00
39341;BME280;25059;52.132;21.062;2023-04-01T06:00:41;98461.34;;;13.16;100.00
39341;BME280;25059;52.132;21.062;2023-04-01T06:03:25;98457.72;;;13.06;100.00
39341;BME280;25059;52.132;21.062;2023-04-01T06:06:14;98457.63;;;12.74;100.00
39341;BME280;25059;52.132;21.062;2023-04-01T06:09:11;98460.38;;;12.95;100.00
39341;BME280;25059;52.132;21.062;2023-04-01T06:15:06;98459.31;;;12.86;100.00
39341;BME280;25059;52.132;21.062;2023-04-01T06:18:20;98458.09;;;13.13;100.00
39341;BME280;25059;52.132;21.062;2023-04-01T06:27:16;98461.09;;;13.19;100.00
39341;BME280;25059;52.132;21.062;2023-04-01T06:30:24;98459.44;;;13.62;100.00
39341;BME280;25059;52.132;21.062;2023-04-01T06:55:00;98450.13;;;13.46;100.00
39341;BME280;25059;52.132;21.062;2023-04-01T06:57:51;98458.69;;;13.71;100.00
39341;BME280;25059;52.132;21.062;2023-04-01T07:00:41;98460.84;;;13.66;100.00
39341;BME280;25059;52.132;21.062;2023-04-01T07:03:47;98458.22;;;13.66;100.00
39341;BME280;25059;52.132;21.062;2023-04-01T07:06:40;98427.13;;;13.69;100.00
39341;BME280;25059;52.132;21.062;2023-04-01T07:09:37;98437.66;;;14.01;100.00
39341;BME280;25059;52.132;21.062;2023-04-01T07:12:33;98460.84;;;14.39;100.00
39341;BME280;25059;52.132;21.062;2023-04-01T07:15:26;98431.91;;;13.96;100.00
39341;BME280;25059;52.132;21.062;2023-04-01T07:18:23;98464.78;;;14.24;100.00
39341;BME280;25059;52.132;21.062;2023-04-01T07:21:17;98464.56;;;13.74;100.00
39341;BME280;25059;52.132;21.062;2023-04-01T07:24:09;98457.28;;;13.87;100.00
39341;BME280;25059;52.132;21.062;2023-04-01T07:26:57;98453.63;;;14.20;100.00
39341;BME280;25059;52.132;21.062;2023-04-01T07:29:42;98452.47;;;13.93;100.00
39341;BME280;25059;52.132;21.062;2023-04-01T07:35:40;98451.00;;;14.00;100.00
39341;BME280;25059;52.132;21.062;2023-04-01T07:38:40;98453.56;;;13.90;100.00
39341;BME280;25059;52.132;21.062;2023-04-01T07:41:50;98459.97;;;13.76;100.00
39341;BME280;25059;52.132;21.062;2023-04-01T07:44:48;98457.44;;;14.28;100.00
39341;BME280;25059;52.132;21.062;2023-04-01T07:54:03;98461.88;;;15.09;100.00
39341;BME280;25059;52.132;21.062;2023-04-01T07:57:00;98459.75;;;14.93;100.00
39341;BME280;25059;52.132;21.062;2023-04-01T08:06:20;98470.09;;;13.71;100.00
39341;BME280;25059;52.132;21.062;2023-04-01T08:09:11;98471.53;;;13.96;100.00
39341;BME280;25059;52.132;21.062;2023-04-01T08:12:03;98457.97;;;14.42;100.00
39341;BME280;25059;52.132;21.062;2023-04-01T08:14:52;98478.78;;;14.15;100.00
39341;BME280;25059;52.132;21.062;2023-04-01T08:20:57;98475.81;;;14.08;100.00
39341;BME280;25059;52.132;21.062;2023-04-01T08:23:48;98478.53;;;13.54;100.00
39341;BME280;25059;52.132;21.062;2023-04-01T08:26:40;98484.16;;;13.61;100.00
39341;BME280;25059;52.132;21.062;2023-04-01T08:29:55;98488.03;;;13.88;100.00
39341;BME280;25059;52.132;21.062;2023-04-01T08:32:39;98489.91;;;13.98;100.00
39341;BME280;25059;52.132;21.062;2023-04-01T08:35:34;98481.16;;;14.18;100.00
39341;BME280;25059;52.132;21.062;2023-04-01T08:41:13;98485.38;;;14.93;100.00
39341;BME280;25059;52.132;21.062;2023-04-01T08:50:23;98489.34;;;14.77;100.00
39341;BME280;25059;52.132;21.062;2023-04-01T08:56:21;98491.13;;;14.46;100.00
39341;BME280;25059;52.132;21.062;2023-04-01T08:59:13;98493.84;;;14.86;100.00
39341;BME280;25059;52.132;21.062;2023-04-01T09:05:25;98497.16;;;14.16;100.00
39341;BME280;25059;52.132;21.062;2023-04-01T09:08:31;98498.38;;;14.33;100.00
39341;BME280;25059;52.132;21.062;2023-04-01T09:21:02;98494.31;;;14.29;100.00
39341;BME280;25059;52.132;21.062;2023-04-01T09:24:03;98506.19;;;14.35;100.00
39341;BME280;25059;52.132;21.062;2023-04-01T09:27:03;98496.28;;;13.95;100.00
39341;BME280;25059;52.132;21.062;2023-04-01T09:33:36;98506.22;;;14.03;100.00
39341;BME280;25059;52.132;21.062;2023-04-01T09:36:38;98510.16;;;13.76;100.00
39341;BME280;25059;52.132;21.062;2023-04-01T09:39:52;98515.19;;;13.36;100.00
39341;BME280;25059;52.132;21.062;2023-04-01T09:42:45;98520.31;;;12.93;100.00
39341;BME280;25059;52.132;21.062;2023-04-01T09:45:41;98514.81;;;12.74;100.00
39341;BME280;25059;52.132;21.062;2023-04-01T10:23:30;98545.41;;;13.32;100.00
39341;BME280;25059;52.132;21.062;2023-04-01T10:45:06;98535.09;;;13.40;100.00
39341;BME280;25059;52.132;21.062;2023-04-01T11:32:05;98535.75;;;14.61;100.00
39341;BME280;25059;52.132;21.062;2023-04-01T11:41:03;98547.03;;;14.63;100.00
39341;BME280;25059;52.132;21.062;2023-04-01T11:53:13;98534.28;;;15.29;100.00
39341;BME280;25059;52.132;21.062;2023-04-01T11:56:13;98541.47;;;15.17;100.00
39341;BME280;25059;52.132;21.062;2023-04-01T12:05:38;98543.38;;;15.86;100.00
39341;BME280;25059;52.132;21.062;2023-04-01T12:08:33;98547.75;;;15.56;100.00
39341;BME280;25059;52.132;21.062;2023-04-01T12:14:32;98537.28;;;15.14;100.00
39341;BME280;25059;52.132;21.062;2023-04-01T12:17:34;98541.63;;;14.43;100.00
39341;BME280;25059;52.132;21.062;2023-04-01T12:26:59;98560.31;;;14.51;100.00
39341;BME280;25059;52.132;21.062;2023-04-01T12:29:51;98552.13;;;14.22;100.00
39341;BME280;25059;52.132;21.062;2023-04-01T12:35:26;98558.44;;;14.84;100.00
39341;BME280;25059;52.132;21.062;2023-04-01T12:41:30;98561.91;;;15.86;100.00
39341;BME280;25059;52.132;21.062;2023-04-01T12:50:47;98553.91;;;17.01;100.00
39341;BME280;25059;52.132;21.062;2023-04-01T12:56:32;98559.03;;;16.37;100.00
39341;BME280;25059;52.132;21.062;2023-04-01T13:17:52;98564.72;;;18.27;98.94
39341;BME280;25059;52.132;21.062;2023-04-01T13:29:28;98567.81;;;18.05;98.62
39341;BME280;25059;52.132;21.062;2023-04-01T13:41:01;98560.03;;;21.55;77.35
39341;BME280;25059;52.132;21.062;2023-04-01T13:59:48;98608.38;;;15.90;100.00
39341;BME280;25059;52.132;21.062;2023-04-01T14:15:14;98612.59;;;20.75;95.88
39341;BME280;25059;52.132;21.062;2023-04-01T14:24:28;98597.19;;;23.27;84.62
39341;BME280;25059;52.132;21.062;2023-04-01T14:39:42;98608.56;;;26.67;69.93
39341;BME280;25059;52.132;21.062;2023-04-01T14:45:27;98623.69;;;24.25;67.08
39341;BME280;25059;52.132;21.062;2023-04-01T14:51:43;98636.06;;;22.39;72.47
39341;BME280;25059;52.132;21.062;2023-04-01T14:54:33;98647.25;;;22.43;70.77
39341;BME280;25059;52.132;21.062;2023-04-01T15:00:15;98643.88;;;21.79;73.66
39341;BME280;25059;52.132;21.062;2023-04-01T15:03:11;98653.28;;;21.67;74.57
39341;BME280;25059;52.132;21.062;2023-04-01T15:18:18;98665.38;;;21.93;68.42
39341;BME280;25059;52.132;21.062;2023-04-01T15:30:36;98702.41;;;20.68;73.78
39341;BME280;25059;52.132;21.062;2023-04-01T15:33:39;98691.03;;;20.08;75.36
39341;BME280;25059;52.132;21.062;2023-04-01T15:36:33;98700.88;;;20.07;75.05
39341;BME280;25059;52.132;21.062;2023-04-01T15:39:37;98716.47;;;20.94;73.22
39341;BME280;25059;52.132;21.062;2023-04-01T16:00:46;98730.53;;;20.04;76.59
39341;BME280;25059;52.132;21.062;2023-04-01T16:06:44;98745.78;;;20.20;76.60
39341;BME280;25059;52.132;21.062;2023-04-01T16:09:43;98758.03;;;19.71;76.45
39341;BME280;25059;52.132;21.062;2023-04-01T16:15:53;98764.28;;;19.61;77.91
39341;BME280;25059;52.132;21.062;2023-04-01T16:21:48;98778.81;;;21.19;72.78
39341;BME280;25059;52.132;21.062;2023-04-01T16:24:40;98773.50;;;21.44;71.36
39341;BME280;25059;52.132;21.062;2023-04-01T16:30:37;98781.19;;;20.64;72.48
39341;BME280;25059;52.132;21.062;2023-04-01T16:36:45;98793.13;;;20.44;73.34
39341;BME280;25059;52.132;21.062;2023-04-01T16:39:54;98804.03;;;20.58;74.12
39341;BME280;25059;52.132;21.062;2023-04-01T16:45:40;98815.25;;;20.70;73.27
39341;BME280;25059;52.132;21.062;2023-04-01T16:48:36;98807.66;;;21.00;71.95
39341;BME280;25059;52.132;21.062;2023-04-01T16:57:18;98834.63;;;21.22;72.93
39341;BME280;25059;52.132;21.062;2023-04-01T17:21:10;98868.25;;;19.26;74.74
39341;BME280;25059;52.132;21.062;2023-04-01T17:24:09;98873.13;;;19.84;73.76
39341;BME280;25059;52.132;21.062;2023-04-01T17:35:59;98888.56;;;20.42;70.62
39341;BME280;25059;52.132;21.062;2023-04-01T17:39:26;98896.34;;;20.61;69.90
39341;BME280;25059;52.132;21.062;2023-04-01T17:47:49;98915.66;;;20.29;69.94
39341;BME280;25059;52.132;21.062;2023-04-01T17:50:46;98923.22;;;20.16;69.87
39341;BME280;25059;52.132;21.062;2023-04-01T17:53:39;98923.94;;;20.00;70.55
39341;BME280;25059;52.132;21.062;2023-04-01T17:59:28;98919.94;;;19.60;71.47
39341;BME280;25059;52.132;21.062;2023-04-01T18:11:17;98948.81;;;19.65;71.38
39341;BME280;25059;52.132;21.062;2023-04-01T18:17:18;98960.16;;;19.85;70.30
39341;BME280;25059;52.132;21.062;2023-04-01T18:26:22;98966.84;;;19.26;70.15
39341;BME280;25059;52.132;21.062;2023-04-01T18:32:13;98978.13;;;19.65;69.53
39341;BME280;25059;52.132;21.062;2023-04-01T18:35:27;98965.34;;;19.41;69.56
39341;BME280;25059;52.132;21.062;2023-04-01T18:38:18;98995.09;;;18.82;72.58
39341;BME280;25059;52.132;21.062;2023-04-01T18:41:14;98989.28;;;19.96;69.22
39341;BME280;25059;52.132;21.062;2023-04-01T18:46:55;98988.91;;;19.46;69.88
39341;BME280;25059;52.132;21.062;2023-04-01T18:52:48;99003.69;;;20.03;68.40
39341;BME280;25059;52.132;21.062;2023-04-01T18:55:40;99007.25;;;19.58;68.79
39341;BME280;25059;52.132;21.062;2023-04-01T18:58:33;99016.06;;;19.59;69.37
39341;BME280;25059;52.132;21.062;2023-04-01T19:01:33;99028.06;;;18.61;71.85
39341;BME280;25059;52.132;21.062;2023-04-01T19:04:32;99025.06;;;18.84;71.57
39341;BME280;25059;52.132;21.062;2023-04-01T19:07:41;99023.13;;;18.76;70.32
39341;BME280;25059;52.132;21.062;2023-04-01T19:17:09;99048.38;;;19.19;69.63
39341;BME280;25059;52.132;21.062;2023-04-01T19:26:19;99048.50;;;19.54;67.83
39341;BME280;25059;52.132;21.062;2023-04-01T19:32:49;99062.50;;;18.82;69.04
39341;BME280;25059;52.132;21.062;2023-04-01T19:38:41;99066.78;;;19.02;69.28
39341;BME280;25059;52.132;21.062;2023-04-01T19:45:00;99066.88;;;18.64;68.92
39341;BME280;25059;52.132;21.062;2023-04-01T19:50:57;99081.56;;;18.20;71.56
39341;BME280;25059;52.132;21.062;2023-04-01T20:06:35;99096.84;;;18.37;71.34
39341;BME280;25059;52.132;21.062;2023-04-01T20:16:06;99110.03;;;18.67;70.36
39341;BME280;25059;52.132;21.062;2023-04-01T20:18:56;99102.72;;;18.89;69.69
39341;BME280;25059;52.132;21.062;2023-04-01T20:21:45;99106.78;;;18.54;70.30
39341;BME280;25059;52.132;21.062;2023-04-01T20:24:37;99118.75;;;12.47;100.00
39341;BME280;25059;52.132;21.062;2023-04-01T20:27:32;99140.66;;;10.65;100.00
39341;BME280;25059;52.132;21.062;2023-04-01T20:45:38;99165.13;;;10.36;100.00
39341;BME280;25059;52.132;21.062;2023-04-01T20:51:53;99173.63;;;10.25;100.00
39341;BME280;25059;52.132;21.062;2023-04-01T21:03:37;99184.09;;;10.41;100.00
39341;BME280;25059;52.132;21.062;2023-04-01T21:12:30;99197.38;;;10.54;100.00
39341;BME280;25059;52.132;21.062;2023-04-01T21:15:29;99211.91;;;10.14;100.00
39341;BME280;25059;52.132;21.062;2023-04-01T21:18:33;99204.69;;;10.01;100.00
39341;BME280;25059;52.132;21.062;2023-04-01T21:42:22;99229.50;;;9.80;100.00
39341;BME280;25059;52.132;21.062;2023-04-01T22:03:08;99241.53;;;10.00;100.00
39341;BME280;25059;52.132;21.062;2023-04-01T22:06:17;99247.88;;;9.80;100.00
39341;BME280;25059;52.132;21.062;2023-04-01T22:09:29;99251.03;;;10.18;100.00
39341;BME280;25059;52.132;21.062;2023-04-01T22:12:23;99264.13;;;10.20;100.00
39341;BME280;25059;52.132;21.062;2023-04-01T22:18:31;99264.84;;;10.06;100.00
39341;BME280;25059;52.132;21.062;2023-04-01T22:21:29;99250.84;;;10.06;100.00
39341;BME280;25059;52.132;21.062;2023-04-01T22:24:20;99264.53;;;10.59;100.00
39341;BME280;25059;52.132;21.062;2023-04-01T22:27:31;99255.13;;;10.55;100.00
39341;BME280;25059;52.132;21.062;2023-04-01T22:42:44;99275.97;;;9.78;100.00
39341;BME280;25059;52.132;21.062;2023-04-01T22:46:02;99290.13;;;9.91;100.00
39341;BME280;25059;52.132;21.062;2023-04-01T22:48:39;99289.38;;;9.89;100.00
39341;BME280;25059;52.132;21.062;2023-04-01T22:51:42;99282.50;;;9.54;100.00
39341;BME280;25059;52.132;21.062;2023-04-01T23:00:21;99302.16;;;9.62;100.00
39341;BME280;25059;52.132;21.062;2023-04-01T23:03:14;99301.56;;;9.90;100.00
39341;BME280;25059;52.132;21.062;2023-04-01T23:06:03;99305.09;;;9.74;100.00
39341;BME280;25059;52.132;21.062;2023-04-01T23:09:25;99308.63;;;9.73;100.00
39341;BME280;25059;52.132;21.062;2023-04-01T23:12:13;99314.25;;;9.82;100.00
39341;BME280;25059;52.132;21.062;2023-04-01T23:15:01;99311.75;;;9.63;100.00
39341;BME280;25059;52.132;21.062;2023-04-01T23:17:59;99315.03;;;9.84;100.00
39341;BME280;25059;52.132;21.062;2023-04-01T23:20:56;99319.97;;;9.73;100.00
39341;BME280;25059;52.132;21.062;2023-04-01T23:23:51;99315.94;;;9.83;100.00
39341;BME280;25059;52.132;21.062;2023-04-01T23:26:50;99321.78;;;9.38;100.00
39341;BME280;25059;52.132;21.062;2023-04-01T23:29:37;99315.28;;;9.62;100.00
39341;BME280;25059;52.132;21.062;2023-04-01T23:32:25;99334.59;;;9.61;100.00
39341;BME280;25059;52.132;21.062;2023-04-01T23:35:15;99333.03;;;9.57;100.00
39341;BME280;25059;52.132;21.062;2023-04-01T23:38:01;99336.34;;;9.61;100.00
39341;BME280;25059;52.132;21.062;2023-04-01T23:40:49;99340.84;;;9.42;100.00
39341;BME280;25059;52.132;21.062;2023-04-01T23:43:37;99339.16;;;9.41;100.00
39341;BME280;25059;52.132;21.062;2023-04-01T23:46:22;99344.31;;;9.42;100.00
39341;BME280;25059;52.132;21.062;2023-04-01T23:49:13;99341.22;;;9.17;100.00
39341;BME280;25059;52.132;21.062;2023-04-01T23:51:59;99349.13;;;8.98;100.00
39341;BME280;25059;52.132;21.062;2023-04-01T23:57:37;99359.56;;;9.17;100.00
